sensor_id;sensor_type;location;lat;lon;timestamp;pressure;altitude;pressure_sealevel;temperature;humidity
26531;BME280;14201;43.188;24.160;2023-08-01T00:01:05;99179.50;;;21.60;77.28
26531;BME280;14201;43.188;24.160;2023-08-01T00:03:31;99184.66;;;21.77;76.80
26531;BME280;14201;43.188;24.160;2023-08-01T00:05:56;99180.28;;;21.72;76.51
26531;BME280;14201;43.188;24.160;2023-08-01T00:08:22;99171.22;;;21.91;75.85
26531;BME280;14201;43.188;24.160;2023-08-01T00:10:48;99166.78;;;21.93;76.04
26531;BME280;14201;43.188;24.160;2023-08-01T00:13:13;99165.78;;;22.03;75.84
26531;BME280;14201;43.188;24.160;2023-08-01T00:15:39;99161.41;;;21.98;75.54
26531;BME280;14201;43.188;24.160;2023-08-01T00:18:04;99168.50;;;21.96;74.38
26531;BME280;14201;43.188;24.160;2023-08-01T00:20:30;99168.59;;;21.88;73.61
26531;BME280;14201;43.188;24.160;2023-08-01T00:22:55;99168.69;;;21.82;74.37
26531;BME280;14201;43.188;24.160;2023-08-01T00:25:20;99162.50;;;21.83;74.62
26531;BME280;14201;43.188;24.160;2023-08-01T00:27:46;99154.63;;;21.74;75.34
26531;BME280;14201;43.188;24.160;2023-08-01T00:30:11;99159.16;;;21.66;75.26
26531;BME280;14201;43.188;24.160;2023-08-01T00:32:37;99160.94;;;21.63;75.82
26531;BME280;14201;43.188;24.160;2023-08-01T00:35:03;99159.56;;;21.19;78.22
26531;BME280;14201;43.188;24.160;2023-08-01T00:37:29;99155.09;;;21.23;77.88
26531;BME280;14201;43.188;24.160;2023-08-01T00:39:54;99155.91;;;21.31;77.57
26531;BME280;14201;43.188;24.160;2023-08-01T00:42:19;99150.50;;;21.45;76.95
26531;BME280;14201;43.188;24.160;2023-08-01T00:44:45;99155.78;;;21.48;76.62
26531;BME280;14201;43.188;24.160;2023-08-01T00:47:13;99152.22;;;21.49;76.01
26531;BME280;14201;43.188;24.160;2023-08-01T00:49:38;99150.53;;;21.39;76.78
26531;BME280;14201;43.188;24.160;2023-08-01T00:52:04;99141.69;;;21.46;76.35
26531;BME280;14201;43.188;24.160;2023-08-01T00:54:29;99142.59;;;21.36;76.65
26531;BME280;14201;43.188;24.160;2023-08-01T00:57:00;99143.44;;;21.44;76.02
26531;BME280;14201;43.188;24.160;2023-08-01T00:59:29;99148.88;;;21.29;76.63
26531;BME280;14201;43.188;24.160;2023-08-01T01:01:54;99139.41;;;20.97;78.25
26531;BME280;14201;43.188;24.160;2023-08-01T01:04:20;99141.94;;;21.12;76.38
26531;BME280;14201;43.188;24.160;2023-08-01T01:06:51;99141.03;;;21.15;75.73
26531;BME280;14201;43.188;24.160;2023-08-01T01:09:17;99130.63;;;20.92;76.86
26531;BME280;14201;43.188;24.160;2023-08-01T01:11:43;99125.38;;;20.85;77.47
26531;BME280;14201;43.188;24.160;2023-08-01T01:14:08;99133.25;;;20.96;76.32
26531;BME280;14201;43.188;24.160;2023-08-01T01:16:34;99131.81;;;20.48;79.10
26531;BME280;14201;43.188;24.160;2023-08-01T01:18:59;99123.97;;;20.34;79.93
26531;BME280;14201;43.188;24.160;2023-08-01T01:21:24;99130.84;;;20.56;78.97
26531;BME280;14201;43.188;24.160;2023-08-01T01:23:50;99120.25;;;20.69;78.18
26531;BME280;14201;43.188;24.160;2023-08-01T01:26:16;99121.06;;;20.72;77.79
26531;BME280;14201;43.188;24.160;2023-08-01T01:28:46;99121.94;;;20.76;77.22
26531;BME280;14201;43.188;24.160;2023-08-01T01:31:12;99123.75;;;20.66;77.90
26531;BME280;14201;43.188;24.160;2023-08-01T01:33:38;99125.53;;;20.65;77.51
26531;BME280;14201;43.188;24.160;2023-08-01T01:36:03;99124.69;;;20.59;77.11
26531;BME280;14201;43.188;24.160;2023-08-01T01:38:29;99121.19;;;20.54;76.27
26531;BME280;14201;43.188;24.160;2023-08-01T01:40:54;99112.41;;;20.45;76.33
26531;BME280;14201;43.188;24.160;2023-08-01T01:43:19;99119.50;;;20.40;76.78
26531;BME280;14201;43.188;24.160;2023-08-01T01:45:45;99113.28;;;20.46;77.14
26531;BME280;14201;43.188;24.160;2023-08-01T01:48:10;99109.88;;;20.25;77.89
26531;BME280;14201;43.188;24.160;2023-08-01T01:50:36;99110.78;;;20.23;77.41
26531;BME280;14201;43.188;24.160;2023-08-01T01:53:01;99110.72;;;20.34;77.33
26531;BME280;14201;43.188;24.160;2023-08-01T01:55:26;99110.69;;;20.35;77.53
26531;BME280;14201;43.188;24.160;2023-08-01T01:57:52;99120.41;;;20.35;77.70
26531;BME280;14201;43.188;24.160;2023-08-01T02:00:17;99120.50;;;20.21;78.14
26531;BME280;14201;43.188;24.160;2023-08-01T02:02:43;99127.53;;;20.22;78.62
26531;BME280;14201;43.188;24.160;2023-08-01T02:05:08;99123.16;;;20.15;78.79
26531;BME280;14201;43.188;24.160;2023-08-01T02:07:33;99118.75;;;20.14;78.91
26531;BME280;14201;43.188;24.160;2023-08-01T02:09:59;99123.16;;;20.16;78.77
26531;BME280;14201;43.188;24.160;2023-08-01T02:12:25;99119.63;;;20.19;78.87
26531;BME280;14201;43.188;24.160;2023-08-01T02:14:50;99112.56;;;20.24;78.03
26531;BME280;14201;43.188;24.160;2023-08-01T02:17:15;99123.88;;;20.43;77.35
26531;BME280;14201;43.188;24.160;2023-08-01T02:19:41;99124.75;;;20.46;76.75
26531;BME280;14201;43.188;24.160;2023-08-01T02:22:06;99123.88;;;20.46;76.85
26531;BME280;14201;43.188;24.160;2023-08-01T02:24:32;99124.75;;;20.46;77.23
26531;BME280;14201;43.188;24.160;2023-08-01T02:26:57;99123.91;;;20.40;77.67
26531;BME280;14201;43.188;24.160;2023-08-01T02:29:23;99129.22;;;20.35;77.34
26531;BME280;14201;43.188;24.160;2023-08-01T02:31:49;99127.66;;;19.99;78.63
26531;BME280;14201;43.188;24.160;2023-08-01T02:34:14;99129.50;;;19.55;80.35
26531;BME280;14201;43.188;24.160;2023-08-01T02:36:40;99129.50;;;19.63;79.46
26531;BME280;14201;43.188;24.160;2023-08-01T02:39:06;99129.47;;;19.80;77.79
26531;BME280;14201;43.188;24.160;2023-08-01T02:41:31;99133.81;;;19.96;77.15
26531;BME280;14201;43.188;24.160;2023-08-01T02:43:57;99137.34;;;19.91;77.72
26531;BME280;14201;43.188;24.160;2023-08-01T02:46:22;99134.75;;;19.88;77.48
26531;BME280;14201;43.188;24.160;2023-08-01T02:48:48;99137.38;;;19.89;77.93
26531;BME280;14201;43.188;24.160;2023-08-01T02:51:13;99138.22;;;19.93;77.55
26531;BME280;14201;43.188;24.160;2023-08-01T02:53:39;99129.44;;;19.84;77.44
26531;BME280;14201;43.188;24.160;2023-08-01T02:56:06;99134.75;;;19.84;77.67
26531;BME280;14201;43.188;24.160;2023-08-01T02:58:33;99135.63;;;19.90;77.86
26531;BME280;14201;43.188;24.160;2023-08-01T03:00:59;99127.69;;;19.90;76.49
26531;BME280;14201;43.188;24.160;2023-08-01T03:03:24;99131.22;;;19.85;76.91
26531;BME280;14201;43.188;24.160;2023-08-01T03:05:50;99133.00;;;19.79;77.49
26531;BME280;14201;43.188;24.160;2023-08-01T03:08:15;99134.78;;;19.74;77.39
26531;BME280;14201;43.188;24.160;2023-08-01T03:10:40;99136.56;;;19.55;78.02
26531;BME280;14201;43.188;24.160;2023-08-01T03:13:06;99131.28;;;19.47;78.11
26531;BME280;14201;43.188;24.160;2023-08-01T03:15:31;99135.69;;;19.53;77.82
26531;BME280;14201;43.188;24.160;2023-08-01T03:17:57;99131.25;;;19.61;77.14
26531;BME280;14201;43.188;24.160;2023-08-01T03:20:22;99131.28;;;19.56;77.16
26531;BME280;14201;43.188;24.160;2023-08-01T03:22:48;99135.69;;;19.48;77.84
26531;BME280;14201;43.188;24.160;2023-08-01T03:25:13;99139.22;;;19.47;78.22
26531;BME280;14201;43.188;24.160;2023-08-01T03:27:38;99134.84;;;19.43;78.27
26531;BME280;14201;43.188;24.160;2023-08-01T03:30:04;99135.69;;;19.42;78.17
26531;BME280;14201;43.188;24.160;2023-08-01T03:32:30;99129.53;;;19.40;78.40
26531;BME280;14201;43.188;24.160;2023-08-01T03:34:55;99128.66;;;19.47;77.95
26531;BME280;14201;43.188;24.160;2023-08-01T03:37:21;99131.28;;;19.47;77.74
26531;BME280;14201;43.188;24.160;2023-08-01T03:39:46;99134.81;;;19.58;76.98
26531;BME280;14201;43.188;24.160;2023-08-01T03:42:12;99140.94;;;19.63;77.53
26531;BME280;14201;43.188;24.160;2023-08-01T03:44:37;99138.25;;;19.70;77.18
26531;BME280;14201;43.188;24.160;2023-08-01T03:47:03;99137.44;;;19.74;77.06
26531;BME280;14201;43.188;24.160;2023-08-01T03:49:28;99140.94;;;19.83;76.73
26531;BME280;14201;43.188;24.160;2023-08-01T03:51:53;99147.09;;;19.85;76.95
26531;BME280;14201;43.188;24.160;2023-08-01T03:54:19;99150.59;;;19.88;76.78
26531;BME280;14201;43.188;24.160;2023-08-01T03:56:44;99148.88;;;19.57;77.52
26531;BME280;14201;43.188;24.160;2023-08-01T03:59:11;99138.34;;;19.34;78.90
26531;BME280;14201;43.188;24.160;2023-08-01T04:01:37;99144.53;;;19.15;79.61
26531;BME280;14201;43.188;24.160;2023-08-01T04:04:02;99138.34;;;19.45;78.98
26531;BME280;14201;43.188;24.160;2023-08-01T04:06:28;99154.16;;;19.62;78.94
26531;BME280;14201;43.188;24.160;2023-08-01T04:08:53;99149.69;;;19.93;77.90
26531;BME280;14201;43.188;24.160;2023-08-01T04:11:21;99154.06;;;20.06;77.75
26531;BME280;14201;43.188;24.160;2023-08-01T04:13:47;99154.03;;;20.14;77.29
26531;BME280;14201;43.188;24.160;2023-08-01T04:16:12;99152.22;;;20.19;77.90
26531;BME280;14201;43.188;24.160;2023-08-01T04:18:38;99160.00;;;20.52;77.19
26531;BME280;14201;43.188;24.160;2023-08-01T04:21:03;99154.69;;;20.61;76.63
26531;BME280;14201;43.188;24.160;2023-08-01T04:23:29;99163.56;;;20.48;77.12
26531;BME280;14201;43.188;24.160;2023-08-01T04:25:54;99160.91;;;20.44;78.07
26531;BME280;14201;43.188;24.160;2023-08-01T04:28:19;99165.25;;;20.67;77.53
26531;BME280;14201;43.188;24.160;2023-08-01T04:30:51;99158.00;;;20.88;77.24
26531;BME280;14201;43.188;24.160;2023-08-01T04:33:17;99164.06;;;21.05;76.49
26531;BME280;14201;43.188;24.160;2023-08-01T04:35:42;99164.78;;;21.24;77.06
26531;BME280;14201;43.188;24.160;2023-08-01T04:38:07;99173.47;;;21.41;75.89
26531;BME280;14201;43.188;24.160;2023-08-01T04:40:34;99168.06;;;21.57;75.94
26531;BME280;14201;43.188;24.160;2023-08-01T04:43:00;99164.41;;;21.69;74.64
26531;BME280;14201;43.188;24.160;2023-08-01T04:45:26;99158.94;;;21.84;75.01
26531;BME280;14201;43.188;24.160;2023-08-01T04:47:51;99170.22;;;22.01;73.82
26531;BME280;14201;43.188;24.160;2023-08-01T04:50:16;99166.50;;;22.16;73.45
26531;BME280;14201;43.188;24.160;2023-08-01T04:52:42;99165.41;;;22.34;72.97
26531;BME280;14201;43.188;24.160;2023-08-01T04:55:07;99159.03;;;22.51;73.35
26531;BME280;14201;43.188;24.160;2023-08-01T04:57:33;99163.19;;;22.67;72.81
26531;BME280;14201;43.188;24.160;2023-08-01T04:59:58;99166.50;;;22.81;72.54
26531;BME280;14201;43.188;24.160;2023-08-01T05:02:25;99170.72;;;22.96;72.65
26531;BME280;14201;43.188;24.160;2023-08-01T05:04:51;99169.69;;;23.07;72.25
26531;BME280;14201;43.188;24.160;2023-08-01T05:07:17;99165.19;;;23.13;73.02
26531;BME280;14201;43.188;24.160;2023-08-01T05:09:42;99168.53;;;23.25;72.50
26531;BME280;14201;43.188;24.160;2023-08-01T05:12:08;99164.94;;;23.27;71.44
26531;BME280;14201;43.188;24.160;2023-08-01T05:14:34;99158.91;;;23.17;71.40
26531;BME280;14201;43.188;24.160;2023-08-01T05:17:00;99165.09;;;23.16;70.42
26531;BME280;14201;43.188;24.160;2023-08-01T05:19:25;99169.63;;;23.11;70.79
26531;BME280;14201;43.188;24.160;2023-08-01T05:21:51;99170.47;;;23.15;70.69
26531;BME280;14201;43.188;24.160;2023-08-01T05:24:17;99169.38;;;23.27;70.06
26531;BME280;14201;43.188;24.160;2023-08-01T05:26:42;99171.09;;;23.29;70.62
26531;BME280;14201;43.188;24.160;2023-08-01T05:29:08;99168.09;;;23.49;69.53
26531;BME280;14201;43.188;24.160;2023-08-01T05:31:33;99178.56;;;23.58;67.68
26531;BME280;14201;43.188;24.160;2023-08-01T05:33:59;99174.78;;;23.70;70.09
26531;BME280;14201;43.188;24.160;2023-08-01T05:36:25;99187.88;;;23.84;69.77
26531;BME280;14201;43.188;24.160;2023-08-01T05:38:51;99177.09;;;23.90;67.20
26531;BME280;14201;43.188;24.160;2023-08-01T05:41:16;99178.88;;;23.90;68.66
26531;BME280;14201;43.188;24.160;2023-08-01T05:43:42;99166.31;;;23.98;66.87
26531;BME280;14201;43.188;24.160;2023-08-01T05:46:07;99182.72;;;24.22;65.47
26531;BME280;14201;43.188;24.160;2023-08-01T05:48:32;99187.06;;;24.26;67.05
26531;BME280;14201;43.188;24.160;2023-08-01T05:50:58;99189.28;;;24.46;65.89
26531;BME280;14201;43.188;24.160;2023-08-01T05:53:27;99195.81;;;24.73;64.16
26531;BME280;14201;43.188;24.160;2023-08-01T05:55:53;99192.84;;;24.87;62.40
26531;BME280;14201;43.188;24.160;2023-08-01T05:58:19;99189.84;;;25.01;62.59
26531;BME280;14201;43.188;24.160;2023-08-01T06:00:44;99187.63;;;25.18;60.75
26531;BME280;14201;43.188;24.160;2023-08-01T06:03:10;99182.75;;;25.37;61.30
26531;BME280;14201;43.188;24.160;2023-08-01T06:05:35;99180.53;;;25.54;58.93
26531;BME280;14201;43.188;24.160;2023-08-01T06:08:00;99177.88;;;25.87;58.16
26531;BME280;14201;43.188;24.160;2023-08-01T06:10:26;99170.91;;;26.15;60.05
26531;BME280;14201;43.188;24.160;2023-08-01T06:12:51;99173.84;;;26.37;60.14
26531;BME280;14201;43.188;24.160;2023-08-01T06:15:17;99174.59;;;26.71;56.92
26531;BME280;14201;43.188;24.160;2023-08-01T06:17:42;99171.09;;;27.26;54.16
26531;BME280;14201;43.188;24.160;2023-08-01T06:20:08;99172.19;;;27.45;56.03
26531;BME280;14201;43.188;24.160;2023-08-01T06:22:33;99166.91;;;27.69;54.02
26531;BME280;14201;43.188;24.160;2023-08-01T06:24:59;99164.31;;;27.93;51.95
26531;BME280;14201;43.188;24.160;2023-08-01T06:27:24;99169.66;;;27.93;48.06
26531;BME280;14201;43.188;24.160;2023-08-01T06:29:50;99162.13;;;28.04;47.77
26531;BME280;14201;43.188;24.160;2023-08-01T06:32:15;99161.03;;;28.33;44.17
26531;BME280;14201;43.188;24.160;2023-08-01T06:34:42;99162.16;;;28.50;46.02
26531;BME280;14201;43.188;24.160;2023-08-01T06:37:07;99165.72;;;28.74;43.41
26531;BME280;14201;43.188;24.160;2023-08-01T06:39:32;99162.28;;;28.92;41.23
26531;BME280;14201;43.188;24.160;2023-08-01T06:41:58;99156.44;;;29.04;39.17
26531;BME280;14201;43.188;24.160;2023-08-01T06:44:23;99155.63;;;29.24;39.88
26531;BME280;14201;43.188;24.160;2023-08-01T06:46:49;99153.56;;;29.52;40.01
26531;BME280;14201;43.188;24.160;2023-08-01T06:49:14;99150.97;;;29.71;38.94
26531;BME280;14201;43.188;24.160;2023-08-01T06:51:40;99154.78;;;30.06;38.88
26531;BME280;14201;43.188;24.160;2023-08-01T06:54:07;99144.47;;;30.36;38.26
26531;BME280;14201;43.188;24.160;2023-08-01T06:56:32;99154.25;;;30.56;37.64
26531;BME280;14201;43.188;24.160;2023-08-01T06:58:57;99139.78;;;30.78;37.50
26531;BME280;14201;43.188;24.160;2023-08-01T07:01:23;99134.72;;;30.91;36.81
26531;BME280;14201;43.188;24.160;2023-08-01T07:03:48;99147.41;;;31.24;36.52
26531;BME280;14201;43.188;24.160;2023-08-01T07:06:16;99139.19;;;31.44;36.39
26531;BME280;14201;43.188;24.160;2023-08-01T07:08:41;99138.97;;;31.66;34.76
26531;BME280;14201;43.188;24.160;2023-08-01T07:11:07;99136.25;;;31.84;35.73
26531;BME280;14201;43.188;24.160;2023-08-01T07:13:32;99131.66;;;32.03;34.96
26531;BME280;14201;43.188;24.160;2023-08-01T07:15:58;99135.50;;;32.31;35.93
26531;BME280;14201;43.188;24.160;2023-08-01T07:18:23;99137.31;;;32.64;34.63
26531;BME280;14201;43.188;24.160;2023-08-01T07:21:01;99132.19;;;32.26;34.59
26531;BME280;14201;43.188;24.160;2023-08-01T07:23:33;99127.97;;;32.53;34.92
26531;BME280;14201;43.188;24.160;2023-08-01T07:25:58;99126.16;;;32.70;34.93
26531;BME280;14201;43.188;24.160;2023-08-01T07:28:24;99122.66;;;32.03;33.27
26531;BME280;14201;43.188;24.160;2023-08-01T07:30:58;99130.50;;;32.56;34.10
26531;BME280;14201;43.188;24.160;2023-08-01T07:33:24;99124.78;;;32.79;32.93
26531;BME280;14201;43.188;24.160;2023-08-01T07:35:49;99122.97;;;32.14;31.65
26531;BME280;14201;43.188;24.160;2023-08-01T07:38:15;99123.94;;;32.13;32.97
26531;BME280;14201;43.188;24.160;2023-08-01T07:40:41;99130.00;;;31.48;33.55
26531;BME280;14201;43.188;24.160;2023-08-01T07:43:06;99128.34;;;31.63;32.99
26531;BME280;14201;43.188;24.160;2023-08-01T07:45:35;99129.94;;;31.67;31.89
26531;BME280;14201;43.188;24.160;2023-08-01T07:48:01;99142.44;;;32.03;33.66
26531;BME280;14201;43.188;24.160;2023-08-01T07:50:27;99139.88;;;32.49;33.26
26531;BME280;14201;43.188;24.160;2023-08-01T07:52:52;99135.00;;;32.40;31.95
26531;BME280;14201;43.188;24.160;2023-08-01T07:55:18;99132.59;;;32.18;32.44
26531;BME280;14201;43.188;24.160;2023-08-01T07:57:46;99128.13;;;32.82;33.76
26531;BME280;14201;43.188;24.160;2023-08-01T08:00:12;99130.50;;;33.34;33.24
26531;BME280;14201;43.188;24.160;2023-08-01T08:02:38;99123.31;;;33.80;31.72
26531;BME280;14201;43.188;24.160;2023-08-01T08:05:04;99124.06;;;33.96;31.83
26531;BME280;14201;43.188;24.160;2023-08-01T08:07:30;99122.88;;;34.16;30.83
26531;BME280;14201;43.188;24.160;2023-08-01T08:09:56;99118.47;;;33.70;30.27
26531;BME280;14201;43.188;24.160;2023-08-01T08:12:22;99109.19;;;33.74;30.34
26531;BME280;14201;43.188;24.160;2023-08-01T08:14:48;99104.19;;;32.92;31.46
26531;BME280;14201;43.188;24.160;2023-08-01T08:17:14;99115.19;;;32.57;31.05
26531;BME280;14201;43.188;24.160;2023-08-01T08:19:40;99108.03;;;32.40;31.75
26531;BME280;14201;43.188;24.160;2023-08-01T08:22:06;99107.69;;;32.78;31.35
26531;BME280;14201;43.188;24.160;2023-08-01T08:24:32;99109.09;;;32.85;31.43
26531;BME280;14201;43.188;24.160;2023-08-01T08:26:58;99112.16;;;33.09;31.58
26531;BME280;14201;43.188;24.160;2023-08-01T08:29:26;99097.81;;;33.69;29.76
26531;BME280;14201;43.188;24.160;2023-08-01T08:31:52;99101.28;;;33.86;30.48
26531;BME280;14201;43.188;24.160;2023-08-01T08:34:18;99100.03;;;33.63;30.05
26531;BME280;14201;43.188;24.160;2023-08-01T08:36:43;99095.59;;;33.31;30.50
26531;BME280;14201;43.188;24.160;2023-08-01T08:39:09;99093.47;;;33.67;30.61
26531;BME280;14201;43.188;24.160;2023-08-01T08:41:51;99093.97;;;33.73;30.13
26531;BME280;14201;43.188;24.160;2023-08-01T08:44:18;99102.81;;;34.04;30.06
26531;BME280;14201;43.188;24.160;2023-08-01T08:46:50;99087.34;;;33.49;28.89
26531;BME280;14201;43.188;24.160;2023-08-01T08:49:17;99085.81;;;33.14;29.54
26531;BME280;14201;43.188;24.160;2023-08-01T08:51:45;99077.31;;;33.51;31.07
26531;BME280;14201;43.188;24.160;2023-08-01T08:54:11;99085.72;;;33.61;29.43
26531;BME280;14201;43.188;24.160;2023-08-01T08:56:38;99085.34;;;33.22;30.46
26531;BME280;14201;43.188;24.160;2023-08-01T08:59:07;99071.75;;;33.68;30.23
26531;BME280;14201;43.188;24.160;2023-08-01T09:01:33;99072.41;;;34.29;28.17
26531;BME280;14201;43.188;24.160;2023-08-01T09:03:59;99076.50;;;34.22;28.67
26531;BME280;14201;43.188;24.160;2023-08-01T09:06:30;99070.00;;;34.94;28.00
26531;BME280;14201;43.188;24.160;2023-08-01T09:09:03;99069.59;;;35.40;28.34
26531;BME280;14201;43.188;24.160;2023-08-01T09:14:06;99063.09;;;35.81;27.83
26531;BME280;14201;43.188;24.160;2023-08-01T09:16:33;99061.75;;;35.22;28.71
26531;BME280;14201;43.188;24.160;2023-08-01T09:18:58;99063.09;;;35.55;27.77
26531;BME280;14201;43.188;24.160;2023-08-01T09:21:24;99052.25;;;36.06;29.52
26531;BME280;14201;43.188;24.160;2023-08-01T09:23:51;99061.88;;;36.60;28.68
26531;BME280;14201;43.188;24.160;2023-08-01T09:26:19;99060.47;;;37.03;26.96
26531;BME280;14201;43.188;24.160;2023-08-01T09:28:56;99060.13;;;37.43;27.46
26531;BME280;14201;43.188;24.160;2023-08-01T09:31:33;99060.97;;;37.79;26.35
26531;BME280;14201;43.188;24.160;2023-08-01T09:33:59;99054.41;;;38.04;26.95
26531;BME280;14201;43.188;24.160;2023-08-01T09:36:24;99058.75;;;38.18;27.18
26531;BME280;14201;43.188;24.160;2023-08-01T09:38:50;99042.75;;;38.36;27.14
26531;BME280;14201;43.188;24.160;2023-08-01T09:41:17;99050.19;;;38.34;26.05
26531;BME280;14201;43.188;24.160;2023-08-01T09:43:43;99053.97;;;38.42;26.69
26531;BME280;14201;43.188;24.160;2023-08-01T09:46:08;99053.41;;;38.05;26.21
26531;BME280;14201;43.188;24.160;2023-08-01T09:48:33;99050.59;;;38.18;28.57
26531;BME280;14201;43.188;24.160;2023-08-01T09:53:31;99038.34;;;37.20;27.03
26531;BME280;14201;43.188;24.160;2023-08-01T09:55:57;99048.84;;;37.25;28.22
26531;BME280;14201;43.188;24.160;2023-08-01T09:58:24;99034.84;;;36.83;27.31
26531;BME280;14201;43.188;24.160;2023-08-01T10:00:51;99032.09;;;37.42;29.26
26531;BME280;14201;43.188;24.160;2023-08-01T10:03:17;99036.09;;;37.83;28.39
26531;BME280;14201;43.188;24.160;2023-08-01T10:05:43;99031.28;;;37.65;26.72
26531;BME280;14201;43.188;24.160;2023-08-01T10:08:09;99040.75;;;36.77;28.83
26531;BME280;14201;43.188;24.160;2023-08-01T10:10:34;99017.34;;;36.39;29.17
26531;BME280;14201;43.188;24.160;2023-08-01T10:13:00;99008.13;;;36.90;28.38
26531;BME280;14201;43.188;24.160;2023-08-01T10:15:26;99004.25;;;37.16;27.67
26531;BME280;14201;43.188;24.160;2023-08-01T10:17:53;99001.59;;;37.50;27.82
26531;BME280;14201;43.188;24.160;2023-08-01T10:20:18;99008.28;;;37.80;27.07
26531;BME280;14201;43.188;24.160;2023-08-01T10:22:45;99003.44;;;37.38;26.88
26531;BME280;14201;43.188;24.160;2023-08-01T10:25:14;98995.28;;;37.50;26.63
26531;BME280;14201;43.188;24.160;2023-08-01T10:27:39;99000.44;;;36.95;26.69
26531;BME280;14201;43.188;24.160;2023-08-01T10:30:06;98984.38;;;37.16;27.32
26531;BME280;14201;43.188;24.160;2023-08-01T10:32:33;98983.13;;;36.73;28.19
26531;BME280;14201;43.188;24.160;2023-08-01T10:34:59;98992.09;;;36.98;27.83
26531;BME280;14201;43.188;24.160;2023-08-01T10:37:25;98985.13;;;37.29;28.27
26531;BME280;14201;43.188;24.160;2023-08-01T10:39:57;98970.97;;;37.71;27.70
26531;BME280;14201;43.188;24.160;2023-08-01T10:42:23;98980.69;;;37.96;26.63
26531;BME280;14201;43.188;24.160;2023-08-01T10:44:49;98973.53;;;37.95;28.05
26531;BME280;14201;43.188;24.160;2023-08-01T10:47:15;98973.53;;;38.06;26.81
26531;BME280;14201;43.188;24.160;2023-08-01T10:49:50;98970.50;;;38.32;27.26
26531;BME280;14201;43.188;24.160;2023-08-01T10:52:19;98964.16;;;38.54;26.72
26531;BME280;14201;43.188;24.160;2023-08-01T10:54:44;98956.47;;;38.80;26.43
26531;BME280;14201;43.188;24.160;2023-08-01T10:57:15;98952.88;;;38.03;26.41
26531;BME280;14201;43.188;24.160;2023-08-01T10:59:40;98965.63;;;37.47;27.05
26531;BME280;14201;43.188;24.160;2023-08-01T11:02:07;98946.38;;;37.50;28.26
26531;BME280;14201;43.188;24.160;2023-08-01T11:04:32;98955.63;;;37.58;28.00
26531;BME280;14201;43.188;24.160;2023-08-01T11:06:58;98944.78;;;37.81;27.16
26531;BME280;14201;43.188;24.160;2023-08-01T11:09:27;98952.56;;;37.63;27.26
26531;BME280;14201;43.188;24.160;2023-08-01T11:11:56;98950.81;;;37.85;27.76
26531;BME280;14201;43.188;24.160;2023-08-01T11:14:22;98948.69;;;38.11;27.64
26531;BME280;14201;43.188;24.160;2023-08-01T11:16:48;98936.81;;;38.00;26.92
26531;BME280;14201;43.188;24.160;2023-08-01T11:19:17;98941.72;;;38.29;27.69
26531;BME280;14201;43.188;24.160;2023-08-01T11:21:43;98941.72;;;38.29;27.12
26531;BME280;14201;43.188;24.160;2023-08-01T11:24:09;98939.53;;;38.55;27.13
26531;BME280;14201;43.188;24.160;2023-08-01T11:26:34;98935.06;;;38.75;26.20
26531;BME280;14201;43.188;24.160;2023-08-01T11:29:02;98944.38;;;38.94;26.23
26531;BME280;14201;43.188;24.160;2023-08-01T11:31:31;98931.47;;;38.54;26.43
26531;BME280;14201;43.188;24.160;2023-08-01T11:33:56;98931.97;;;38.48;25.59
26531;BME280;14201;43.188;24.160;2023-08-01T11:36:24;98927.19;;;38.40;25.63
26531;BME280;14201;43.188;24.160;2023-08-01T11:38:50;98929.06;;;38.39;25.54
26531;BME280;14201;43.188;24.160;2023-08-01T11:41:15;98921.66;;;37.87;26.27
26531;BME280;14201;43.188;24.160;2023-08-01T11:43:41;98929.63;;;38.11;26.63
26531;BME280;14201;43.188;24.160;2023-08-01T11:46:07;98915.50;;;37.62;26.91
26531;BME280;14201;43.188;24.160;2023-08-01T11:48:33;98921.81;;;36.58;27.56
26531;BME280;14201;43.188;24.160;2023-08-01T11:50:59;98911.34;;;36.18;28.74
26531;BME280;14201;43.188;24.160;2023-08-01T11:53:25;98917.63;;;36.05;28.81
26531;BME280;14201;43.188;24.160;2023-08-01T11:55:51;98917.00;;;36.50;28.98
26531;BME280;14201;43.188;24.160;2023-08-01T11:58:28;98911.84;;;36.94;29.48
26531;BME280;14201;43.188;24.160;2023-08-01T12:01:01;98906.97;;;37.33;28.62
26531;BME280;14201;43.188;24.160;2023-08-01T12:03:26;98901.16;;;37.60;27.06
26531;BME280;14201;43.188;24.160;2023-08-01T12:05:52;98899.25;;;36.93;27.93
26531;BME280;14201;43.188;24.160;2023-08-01T12:08:31;98895.66;;;36.81;28.55
26531;BME280;14201;43.188;24.160;2023-08-01T12:11:00;98878.97;;;36.39;28.78
26531;BME280;14201;43.188;24.160;2023-08-01T12:13:26;98888.47;;;35.96;28.75
26531;BME280;14201;43.188;24.160;2023-08-01T12:15:52;98880.44;;;36.32;29.77
26531;BME280;14201;43.188;24.160;2023-08-01T12:20:47;98870.69;;;36.76;28.91
26531;BME280;14201;43.188;24.160;2023-08-01T12:23:12;98867.22;;;36.03;30.68
26531;BME280;14201;43.188;24.160;2023-08-01T12:25:37;98865.59;;;35.76;30.67
26531;BME280;14201;43.188;24.160;2023-08-01T12:28:03;98856.88;;;35.34;30.39
26531;BME280;14201;43.188;24.160;2023-08-01T12:30:29;98843.06;;;34.87;30.44
26531;BME280;14201;43.188;24.160;2023-08-01T12:32:54;98842.75;;;35.18;30.16
26531;BME280;14201;43.188;24.160;2023-08-01T12:35:20;98846.09;;;35.58;30.48
26531;BME280;14201;43.188;24.160;2023-08-01T12:37:45;98839.66;;;35.85;29.50
26531;BME280;14201;43.188;24.160;2023-08-01T12:40:11;98835.78;;;36.00;28.46
26531;BME280;14201;43.188;24.160;2023-08-01T12:42:37;98837.72;;;35.98;29.45
26531;BME280;14201;43.188;24.160;2023-08-01T12:45:02;98837.50;;;35.40;30.27
26531;BME280;14201;43.188;24.160;2023-08-01T12:47:28;98830.59;;;35.60;29.00
26531;BME280;14201;43.188;24.160;2023-08-01T12:49:55;98827.72;;;35.51;28.68
26531;BME280;14201;43.188;24.160;2023-08-01T12:52:25;98818.06;;;35.83;29.03